Time;durP1;ratioP1;P1;durP2;ratioP2;P2;SDS_P1;SDS_P2;PMS_P1;PMS_P2;Temp;Humidity;BMP_temperature;BMP_pressure;BME280_temperature;BME280_humidity;BME280_pressure;Samples;Min_cycle;Max_cycle;Signal;HPM_P1;HPM_P2
2022/09/19 00:01:33;;;;;;;1.30;1.20;;;10.00;99.90;;;;;;5116326;28;20466;-59
2022/09/19 00:04:03;;;;;;;1.27;1.17;;;9.90;99.90;;;;;;5115900;28;20486;-59
2022/09/19 00:06:32;;;;;;;4.17;1.60;;;9.90;99.90;;;;;;5115933;28;20925;-59
2022/09/19 00:09:00;;;;;;;1.40;1.27;;;9.90;99.90;;;;;;5116344;28;20442;-59
2022/09/19 00:11:29;;;;;;;1.40;1.30;;;9.80;99.90;;;;;;5116079;28;20842;-59
2022/09/19 00:13:59;;;;;;;1.47;1.30;;;9.70;99.90;;;;;;5116154;28;20449;-59
2022/09/19 00:16:28;;;;;;;1.30;1.20;;;9.60;99.90;;;;;;5115861;28;20516;-59
2022/09/19 00:18:57;;;;;;;1.20;1.10;;;9.60;99.90;;;;;;5116138;28;20442;-59
2022/09/19 00:21:26;;;;;;;1.40;1.30;;;9.50;99.90;;;;;;5115866;28;20469;-59
2022/09/19 00:26:41;;;;;;;1.73;1.30;;;9.60;99.90;;;;;;5115671;28;20908;-59
2022/09/19 00:29:10;;;;;;;2.23;1.30;;;9.60;99.90;;;;;;5115583;28;20442;-59
2022/09/19 00:31:37;;;;;;;3.03;1.23;;;9.50;99.90;;;;;;5115682;28;20468;-59
2022/09/19 00:34:06;;;;;;;1.20;1.10;;;9.50;99.90;;;;;;5115764;28;20800;-59
2022/09/19 00:36:34;;;;;;;1.40;1.20;;;9.30;99.90;;;;;;5115695;28;20480;-59
2022/09/19 00:39:01;;;;;;;2.07;1.10;;;9.20;99.90;;;;;;5115385;28;21001;-59
2022/09/19 00:41:29;;;;;;;1.20;1.10;;;9.20;99.90;;;;;;5115511;28;20808;-59
2022/09/19 00:44:00;;;;;;;1.20;1.10;;;9.20;99.90;;;;;;5115647;28;20487;-60
2022/09/19 00:46:29;;;;;;;1.70;1.13;;;9.10;99.90;;;;;;5115387;28;20501;-59
2022/09/19 00:49:00;;;;;;;2.50;1.23;;;9.20;99.90;;;;;;5115397;28;20446;-59
2022/09/19 00:51:31;;;;;;;1.30;1.20;;;9.20;99.90;;;;;;5115202;28;20977;-59
2022/09/19 00:54:02;;;;;;;1.13;1.00;;;9.20;99.90;;;;;;5115480;28;20415;-60
2022/09/19 00:56:30;;;;;;;1.30;1.20;;;9.30;99.90;;;;;;5115445;28;20465;-59
2022/09/19 00:59:01;;;;;;;1.30;1.20;;;9.10;99.90;;;;;;5114904;28;20505;-59
2022/09/19 01:01:30;;;;;;;1.20;1.00;;;9.10;99.90;;;;;;5115089;28;20482;-59
2022/09/19 01:03:57;;;;;;;1.93;1.10;;;9.00;99.90;;;;;;5114898;28;20895;-59
2022/09/19 01:06:40;;;;;;;1.20;1.10;;;9.00;99.90;;;;;;5115040;28;20473;-59
2022/09/19 01:09:35;;;;;;;1.10;1.00;;;9.00;99.90;;;;;;5114710;28;20430;-59
2022/09/19 01:12:23;;;;;;;1.20;1.10;;;9.00;99.90;;;;;;5112462;28;20558;-59
2022/09/19 01:15:10;;;;;;;1.10;1.00;;;8.90;99.90;;;;;;5114765;28;20889;-59
2022/09/19 01:17:46;;;;;;;1.30;1.20;;;8.90;99.90;;;;;;5114742;28;20898;-59
2022/09/19 01:20:52;;;;;;;1.20;1.10;;;9.00;99.90;;;;;;5114476;28;20434;-59
2022/09/19 01:23:44;;;;;;;1.20;1.10;;;9.00;99.90;;;;;;5114829;28;20430;-59
2022/09/19 01:26:31;;;;;;;1.50;1.20;;;9.10;99.90;;;;;;5114706;28;20529;-59
2022/09/19 01:29:07;;;;;;;1.33;1.20;;;9.00;99.90;;;;;;5114690;28;20496;-59
2022/09/19 01:31:39;;;;;;;1.20;1.10;;;9.00;99.90;;;;;;5114689;28;20467;-59
2022/09/19 01:34:12;;;;;;;3.67;1.10;;;9.00;99.90;;;;;;5114702;28;20794;-59
2022/09/19 01:36:44;;;;;;;1.77;1.30;;;9.10;99.90;;;;;;5114522;28;20427;-59
2022/09/19 01:39:13;;;;;;;2.30;1.20;;;9.10;99.90;;;;;;5114201;28;20480;-59
2022/09/19 01:41:48;;;;;;;1.30;1.20;;;9.10;99.90;;;;;;5114540;28;20470;-59
2022/09/19 01:44:19;;;;;;;1.40;1.30;;;9.10;99.90;;;;;;5114643;28;20576;-59
2022/09/19 01:46:53;;;;;;;2.07;1.60;;;9.20;99.90;;;;;;5113853;28;20478;-59
2022/09/19 01:49:37;;;;;;;2.57;1.47;;;9.20;99.90;;;;;;5114033;28;20425;-59
2022/09/19 01:52:17;;;;;;;1.90;1.23;;;9.10;99.90;;;;;;5113891;28;20545;-59
2022/09/19 01:54:54;;;;;;;1.30;1.20;;;9.20;99.90;;;;;;5113955;28;20787;-59
2022/09/19 01:57:31;;;;;;;1.37;1.27;;;9.10;99.90;;;;;;5114250;28;20455;-59
2022/09/19 02:00:10;;;;;;;1.50;1.40;;;9.00;99.90;;;;;;5114289;28;20458;-59
2022/09/19 02:02:44;;;;;;;2.60;1.30;;;9.10;99.90;;;;;;5113795;28;20501;-59
2022/09/19 02:05:14;;;;;;;1.73;1.37;;;9.10;99.90;;;;;;5113966;28;20557;-59
2022/09/19 02:07:47;;;;;;;1.33;1.23;;;9.10;99.90;;;;;;5114039;28;20451;-59
2022/09/19 02:10:20;;;;;;;1.27;1.17;;;9.10;99.90;;;;;;5113680;28;20435;-59
2022/09/19 02:12:52;;;;;;;1.33;1.23;;;9.10;99.90;;;;;;5113774;28;20837;-59
2022/09/19 02:15:23;;;;;;;1.57;1.47;;;9.00;99.90;;;;;;5113746;28;20423;-59
2022/09/19 02:17:56;;;;;;;1.90;1.47;;;9.10;99.90;;;;;;5113586;28;20916;-59
2022/09/19 02:20:28;;;;;;;1.30;1.20;;;9.10;99.90;;;;;;5113864;28;20433;-59
2022/09/19 02:22:59;;;;;;;3.60;1.33;;;9.10;99.90;;;;;;5112782;28;20965;-59
2022/09/19 02:25:33;;;;;;;1.73;1.60;;;9.10;99.90;;;;;;5113857;28;20470;-59
2022/09/19 02:28:05;;;;;;;4.10;3.40;;;9.10;99.90;;;;;;5113759;28;20833;-59
2022/09/19 02:30:34;;;;;;;4.50;1.50;;;9.10;99.90;;;;;;5113767;28;20433;-59
2022/09/19 02:33:07;;;;;;;1.90;1.70;;;9.10;99.90;;;;;;5113424;28;20470;-59
2022/09/19 02:35:43;;;;;;;2.70;1.40;;;9.10;99.90;;;;;;5113908;28;20431;-59
2022/09/19 02:38:22;;;;;;;4.43;1.60;;;9.10;99.90;;;;;;5113421;28;20885;-59
2022/09/19 02:40:55;;;;;;;2.30;1.60;;;9.10;99.90;;;;;;5113622;28;20430;-59
2022/09/19 02:43:32;;;;;;;2.90;1.53;;;9.10;99.90;;;;;;5113566;28;20454;-59
2022/09/19 02:46:07;;;;;;;1.30;1.20;;;9.10;99.90;;;;;;5113109;28;21017;-59
2022/09/19 02:48:47;;;;;;;1.43;1.20;;;9.10;99.90;;;;;;5113728;28;20431;-59
2022/09/19 02:51:20;;;;;;;3.80;1.57;;;9.20;99.90;;;;;;5113688;28;20467;-59
2022/09/19 02:53:49;;;;;;;1.60;1.40;;;9.10;99.90;;;;;;5113970;28;20476;-59
2022/09/19 02:56:19;;;;;;;2.50;1.60;;;9.10;99.90;;;;;;5113502;28;20529;-59
2022/09/19 02:58:51;;;;;;;1.97;1.50;;;9.10;99.90;;;;;;5113458;28;20455;-59
2022/09/19 03:01:22;;;;;;;1.40;1.30;;;9.00;99.90;;;;;;5113511;28;20477;-59
2022/09/19 03:06:55;;;;;;;1.30;1.20;;;8.90;99.90;;;;;;5070749;28;20420;-59
2022/09/19 03:09:25;;;;;;;2.13;1.23;;;8.90;99.90;;;;;;5104435;28;20541;-59
2022/09/19 03:11:59;;;;;;;2.83;1.40;;;9.00;99.90;;;;;;5113314;28;20474;-59
2022/09/19 03:14:27;;;;;;;6.20;1.47;;;8.90;99.90;;;;;;5113666;28;20498;-59
2022/09/19 03:16:58;;;;;;;1.83;1.40;;;8.90;99.90;;;;;;5113315;28;20434;-59
2022/09/19 03:19:25;;;;;;;1.80;1.30;;;8.90;99.90;;;;;;5113359;28;20430;-59
2022/09/19 03:21:54;;;;;;;1.80;1.70;;;8.90;99.90;;;;;;5113407;28;20466;-59
2022/09/19 03:24:23;;;;;;;2.93;2.47;;;8.90;99.90;;;;;;5113454;28;20478;-59
2022/09/19 03:26:50;;;;;;;3.00;1.70;;;8.90;99.90;;;;;;5113572;28;20806;-59
2022/09/19 03:29:17;;;;;;;2.23;1.70;;;8.90;99.90;;;;;;5112926;28;20458;-59
2022/09/19 03:31:46;;;;;;;1.87;1.53;;;8.90;99.90;;;;;;5113094;28;20463;-59
2022/09/19 03:34:15;;;;;;;5.20;2.10;;;9.00;99.90;;;;;;5114956;28;20443;-59
2022/09/19 03:36:42;;;;;;;1.60;1.50;;;9.00;99.90;;;;;;5116897;28;20442;-59
2022/09/19 03:39:09;;;;;;;3.43;1.33;;;9.00;99.90;;;;;;5116818;28;20473;-59
2022/09/19 03:41:38;;;;;;;4.90;1.70;;;9.00;99.90;;;;;;5116790;28;20466;-59
2022/09/19 03:44:05;;;;;;;1.67;1.57;;;9.00;99.90;;;;;;5116660;28;20930;-59
2022/09/19 03:46:33;;;;;;;3.63;1.60;;;9.00;99.90;;;;;;5116690;28;20482;-59
2022/09/19 03:49:02;;;;;;;6.50;2.03;;;9.00;99.90;;;;;;5116710;28;20457;-59
2022/09/19 03:51:32;;;;;;;3.20;1.60;;;9.00;99.90;;;;;;5116483;28;20502;-59
2022/09/19 03:53:59;;;;;;;3.83;1.53;;;9.10;99.90;;;;;;5116758;28;20442;-59
2022/09/19 03:56:26;;;;;;;3.77;1.70;;;9.10;99.90;;;;;;5116203;28;20827;-59
2022/09/19 03:58:54;;;;;;;2.90;1.73;;;9.20;99.90;;;;;;5116519;28;20525;-59
2022/09/19 04:01:21;;;;;;;4.60;2.07;;;9.20;99.90;;;;;;5116195;28;20466;-59
2022/09/19 04:03:49;;;;;;;3.63;2.03;;;9.20;99.90;;;;;;5116304;28;20563;-59
2022/09/19 04:06:16;;;;;;;4.20;1.90;;;9.30;99.90;;;;;;5116408;28;20490;-59
2022/09/19 04:08:45;;;;;;;4.93;1.87;;;9.30;99.90;;;;;;5116081;28;20442;-59
2022/09/19 04:11:12;;;;;;;3.93;1.60;;;9.30;99.90;;;;;;5115770;28;20471;-59
2022/09/19 04:13:40;;;;;;;6.30;1.47;;;9.40;99.90;;;;;;5116309;28;20454;-60
2022/09/19 04:16:07;;;;;;;2.77;1.60;;;9.40;99.90;;;;;;5115738;28;20442;-59
2022/09/19 04:18:35;;;;;;;3.20;2.07;;;9.30;99.90;;;;;;5115660;28;20451;-59
2022/09/19 04:21:03;;;;;;;3.87;1.77;;;9.30;99.90;;;;;;5115677;28;20520;-59
2022/09/19 04:23:30;;;;;;;5.07;2.07;;;9.50;99.90;;;;;;5115593;28;20447;-59
2022/09/19 04:26:00;;;;;;;2.97;1.83;;;9.40;99.90;;;;;;5115549;28;20474;-59
2022/09/19 04:28:27;;;;;;;2.63;1.57;;;9.50;99.90;;;;;;5115889;28;20529;-59
2022/09/19 04:30:55;;;;;;;2.57;1.80;;;9.50;99.90;;;;;;5115296;28;20447;-59
2022/09/19 04:33:26;;;;;;;2.87;1.90;;;9.40;99.90;;;;;;5115744;28;20879;-59
2022/09/19 04:35:57;;;;;;;4.30;1.53;;;9.50;99.90;;;;;;5115746;28;20431;-59
2022/09/19 04:38:24;;;;;;;2.13;1.60;;;9.40;99.90;;;;;;5115388;28;20452;-59
2022/09/19 04:40:56;;;;;;;3.97;1.80;;;9.40;99.90;;;;;;5115527;28;20454;-59
2022/09/19 04:43:26;;;;;;;3.00;1.97;;;9.40;99.90;;;;;;5115598;27;20465;-59
2022/09/19 04:45:54;;;;;;;2.70;2.00;;;9.50;99.90;;;;;;5114509;28;20493;-59
2022/09/19 04:48:22;;;;;;;4.60;2.33;;;9.50;99.90;;;;;;5115476;28;20807;-59
2022/09/19 04:50:51;;;;;;;3.60;2.17;;;9.50;99.90;;;;;;5115383;28;20489;-59
2022/09/19 04:53:18;;;;;;;2.37;2.17;;;9.60;99.90;;;;;;5115109;28;20446;-59
2022/09/19 04:55:49;;;;;;;2.90;1.60;;;9.60;99.90;;;;;;5115016;28;20453;-59
2022/09/19 04:58:17;;;;;;;4.67;2.30;;;9.70;99.90;;;;;;5114916;28;20913;-59
2022/09/19 05:00:49;;;;;;;6.60;2.60;;;9.70;99.90;;;;;;5115079;28;20810;-59
2022/09/19 05:03:18;;;;;;;8.00;2.30;;;9.60;99.90;;;;;;5114826;28;20481;-59
2022/09/19 05:05:50;;;;;;;4.50;1.93;;;9.60;99.90;;;;;;5114810;28;20478;-59
2022/09/19 05:08:20;;;;;;;3.40;2.70;;;9.70;99.90;;;;;;5114740;28;20435;-59
2022/09/19 05:10:47;;;;;;;9.17;2.27;;;9.70;99.90;;;;;;5114470;28;20450;-59
2022/09/19 05:13:14;;;;;;;5.50;1.90;;;9.70;99.90;;;;;;5114977;28;20882;-60
2022/09/19 05:15:41;;;;;;;4.80;1.93;;;9.70;99.90;;;;;;5114908;28;20438;-59
2022/09/19 05:18:11;;;;;;;7.00;2.10;;;9.70;99.90;;;;;;5114726;28;20446;-59
2022/09/19 05:20:39;;;;;;;2.67;2.13;;;9.70;99.90;;;;;;5114863;28;20503;-59
2022/09/19 05:23:07;;;;;;;4.40;1.60;;;9.80;99.90;;;;;;5114377;28;20467;-59
2022/09/19 05:25:38;;;;;;;2.60;1.97;;;9.80;99.90;;;;;;5114132;28;20478;-59
2022/09/19 05:28:06;;;;;;;2.37;1.90;;;9.80;99.90;;;;;;5114747;28;20484;-59
2022/09/19 05:30:34;;;;;;;7.10;2.53;;;9.80;99.90;;;;;;5114513;28;20500;-60
2022/09/19 05:33:02;;;;;;;4.37;2.17;;;9.90;99.90;;;;;;5114287;28;20545;-59
2022/09/19 05:35:30;;;;;;;3.47;2.37;;;9.90;99.90;;;;;;5113991;28;20537;-59
2022/09/19 05:37:58;;;;;;;6.70;2.70;;;9.90;99.90;;;;;;5114015;28;21004;-59
2022/09/19 05:40:26;;;;;;;9.07;2.63;;;10.00;99.90;;;;;;5113999;28;20453;-59
2022/09/19 05:42:55;;;;;;;4.30;3.53;;;10.00;99.90;;;;;;5114088;28;20475;-59
2022/09/19 05:45:22;;;;;;;10.60;2.03;;;10.00;99.90;;;;;;5113558;28;20497;-59
2022/09/19 05:47:50;;;;;;;6.10;2.87;;;10.00;99.90;;;;;;5113698;28;20442;-59
2022/09/19 05:50:17;;;;;;;7.13;2.13;;;10.00;99.90;;;;;;5114022;28;20503;-59
2022/09/19 05:55:31;;;;;;;7.07;2.60;;;10.00;99.90;;;;;;5113930;28;20410;-59
2022/09/19 05:57:59;;;;;;;4.60;2.80;;;10.10;99.90;;;;;;5113697;28;20453;-59
2022/09/19 06:00:28;;;;;;;5.00;3.03;;;10.20;99.90;;;;;;5113782;28;20455;-59
2022/09/19 06:02:56;;;;;;;2.33;1.80;;;10.30;99.90;;;;;;5113929;28;20467;-59
2022/09/19 06:05:24;;;;;;;4.40;2.10;;;10.30;99.90;;;;;;5113977;28;20527;-61
2022/09/19 06:07:56;;;;;;;6.93;3.00;;;10.30;99.90;;;;;;5113663;28;20447;-60
2022/09/19 06:10:24;;;;;;;8.10;2.50;;;10.20;99.90;;;;;;5113862;28;20906;-59
2022/09/19 06:12:51;;;;;;;5.40;2.27;;;10.30;99.90;;;;;;5113830;28;20561;-60
2022/09/19 06:15:18;;;;;;;3.73;2.10;;;10.30;99.90;;;;;;5113724;28;20465;-60
2022/09/19 06:17:49;;;;;;;6.40;2.60;;;10.30;99.90;;;;;;5113650;28;20442;-60
2022/09/19 06:20:17;;;;;;;9.63;2.30;;;10.40;99.90;;;;;;5113863;28;20442;-60
2022/09/19 06:22:44;;;;;;;5.77;2.60;;;10.40;99.90;;;;;;5113618;28;20553;-59
2022/09/19 06:25:13;;;;;;;5.90;2.53;;;10.30;99.90;;;;;;5113114;28;20474;-60
2022/09/19 06:27:46;;;;;;;5.07;2.53;;;10.40;99.90;;;;;;5113541;28;20504;-60
2022/09/19 06:30:16;;;;;;;3.43;1.77;;;10.50;99.90;;;;;;5113852;28;20518;-60
2022/09/19 06:32:43;;;;;;;3.40;2.00;;;10.50;99.90;;;;;;5112890;28;21063;-60
2022/09/19 06:35:10;;;;;;;3.33;1.90;;;10.60;99.90;;;;;;5113393;28;20438;-61
2022/09/19 06:37:37;;;;;;;4.50;2.70;;;10.60;99.90;;;;;;5113253;28;20533;-60
2022/09/19 06:40:05;;;;;;;4.90;2.50;;;10.70;99.90;;;;;;5113486;28;20547;-60
2022/09/19 06:42:33;;;;;;;2.83;2.30;;;10.70;99.90;;;;;;5112891;28;20519;-60
2022/09/19 06:45:01;;;;;;;5.57;2.60;;;10.80;99.90;;;;;;5113001;28;20481;-59
2022/09/19 06:47:28;;;;;;;5.30;2.60;;;10.70;99.90;;;;;;5113245;28;20450;-60
2022/09/19 06:49:55;;;;;;;4.90;3.03;;;10.70;99.90;;;;;;5113264;28;20454;-59
2022/09/19 06:52:22;;;;;;;9.10;2.23;;;10.70;99.90;;;;;;5113200;28;20472;-59
2022/09/19 06:54:49;;;;;;;15.37;2.87;;;10.80;99.90;;;;;;5112993;28;20450;-60
2022/09/19 06:57:16;;;;;;;4.53;2.53;;;10.80;99.90;;;;;;5113166;28;20525;-60
2022/09/19 06:59:45;;;;;;;6.60;3.90;;;10.90;99.90;;;;;;5113120;28;20533;-60
2022/09/19 07:02:13;;;;;;;9.60;4.00;;;11.00;99.90;;;;;;5113259;28;20467;-60
2022/09/19 07:04:40;;;;;;;8.57;3.20;;;11.10;99.90;;;;;;5113088;28;20469;-63
2022/09/19 07:07:08;;;;;;;7.40;2.67;;;11.00;99.90;;;;;;5112993;28;20474;-60
2022/09/19 07:09:35;;;;;;;5.03;2.00;;;11.00;99.90;;;;;;5115692;28;20452;-59
2022/09/19 07:12:02;;;;;;;2.53;2.03;;;11.00;99.90;;;;;;5116914;28;20474;-59
2022/09/19 07:14:30;;;;;;;8.00;2.63;;;11.00;99.90;;;;;;5117234;28;20450;-60
2022/09/19 07:16:59;;;;;;;3.67;2.27;;;11.00;99.90;;;;;;5116805;28;20442;-59
2022/09/19 07:19:26;;;;;;;6.07;2.63;;;11.00;99.90;;;;;;5116834;28;20451;-59
2022/09/19 07:21:53;;;;;;;3.60;2.33;;;10.90;99.90;;;;;;5116616;28;20475;-63
2022/09/19 07:24:21;;;;;;;10.67;2.70;;;11.00;99.90;;;;;;5117136;28;20474;-60
2022/09/19 07:26:48;;;;;;;5.13;2.30;;;11.10;99.90;;;;;;5116170;28;20481;-59
2022/09/19 07:29:15;;;;;;;6.57;2.63;;;11.30;99.90;;;;;;5116937;28;20460;-60
2022/09/19 07:31:42;;;;;;;4.13;1.90;;;11.30;99.90;;;;;;5116659;28;20469;-60
2022/09/19 07:34:11;;;;;;;9.37;3.37;;;11.40;99.90;;;;;;5116372;28;20482;-60
2022/09/19 07:36:38;;;;;;;7.63;2.70;;;11.30;99.90;;;;;;5116527;28;20438;-60
2022/09/19 07:39:05;;;;;;;3.80;2.10;;;11.30;99.90;;;;;;5116850;28;20778;-59
2022/09/19 07:41:32;;;;;;;4.27;2.30;;;11.40;99.90;;;;;;5116441;28;20466;-60
2022/09/19 07:43:59;;;;;;;3.80;1.93;;;11.50;99.90;;;;;;5116489;28;20549;-60
2022/09/19 07:46:27;;;;;;;4.43;2.30;;;11.60;99.90;;;;;;5116115;28;20490;-60
2022/09/19 07:48:54;;;;;;;4.50;2.40;;;11.60;99.90;;;;;;5116280;28;20477;-59
2022/09/19 07:51:23;;;;;;;9.83;2.23;;;11.50;99.90;;;;;;5116264;28;20471;-60
2022/09/19 07:53:50;;;;;;;7.83;2.23;;;11.50;99.90;;;;;;5116161;28;20959;-59
2022/09/19 07:56:17;;;;;;;21.77;2.93;;;11.60;99.90;;;;;;5116593;28;20438;-60
2022/09/19 07:58:44;;;;;;;3.60;3.30;;;11.70;99.90;;;;;;5115861;28;20453;-60
2022/09/19 08:01:12;;;;;;;6.33;2.20;;;11.80;99.90;;;;;;5116077;28;20494;-60
2022/09/19 08:03:39;;;;;;;4.10;2.47;;;11.80;99.90;;;;;;5115749;28;20451;-60
2022/09/19 08:06:06;;;;;;;8.53;2.40;;;11.80;99.90;;;;;;5115602;28;20478;-59
2022/09/19 08:08:36;;;;;;;7.70;2.63;;;12.00;99.90;;;;;;5116050;28;20450;-60
2022/09/19 08:11:03;;;;;;;19.63;3.07;;;12.00;99.90;;;;;;5115761;28;20523;-60
2022/09/19 08:13:30;;;;;;;8.70;3.33;;;12.10;99.90;;;;;;5116079;28;20460;-60
2022/09/19 08:15:59;;;;;;;6.80;2.40;;;12.10;99.90;;;;;;5115885;28;20443;-60
2022/09/19 08:18:27;;;;;;;10.80;2.90;;;12.20;99.90;;;;;;5115745;28;20932;-60
2022/09/19 08:20:54;;;;;;;6.73;2.30;;;12.20;99.90;;;;;;5114283;28;20451;-60
2022/09/19 08:23:22;;;;;;;6.70;3.07;;;12.20;99.90;;;;;;5115933;28;20447;-60
2022/09/19 08:25:53;;;;;;;9.50;2.70;;;12.30;99.90;;;;;;5115581;28;20560;-60
2022/09/19 08:28:21;;;;;;;5.33;2.23;;;12.20;99.90;;;;;;5115737;28;20451;-59
2022/09/19 08:30:49;;;;;;;4.90;2.17;;;12.30;99.90;;;;;;5115210;28;20541;-60
2022/09/19 08:33:18;;;;;;;5.53;2.30;;;12.10;99.90;;;;;;5115334;28;20453;-59
2022/09/19 08:35:45;;;;;;;10.30;2.70;;;12.00;99.90;;;;;;5115765;28;20495;-60
2022/09/19 08:38:13;;;;;;;5.93;2.10;;;12.20;99.90;;;;;;5115211;28;20446;-60
2022/09/19 08:41:16;;;;;;;3.80;2.03;;;12.30;99.90;;;;;;5115551;28;20447;-60
2022/09/19 08:43:51;;;;;;;4.60;2.67;;;12.40;99.90;;;;;;5101281;28;20461;-60
2022/09/19 08:46:33;;;;;;;4.43;2.70;;;12.60;99.90;;;;;;5115118;28;20482;-60
2022/09/19 08:49:04;;;;;;;10.20;2.83;;;12.60;99.90;;;;;;5115098;28;20434;-60
2022/09/19 08:51:35;;;;;;;3.83;2.90;;;12.70;99.90;;;;;;5115465;28;20511;-60
2022/09/19 08:54:06;;;;;;;6.43;2.40;;;12.80;99.90;;;;;;5115402;28;20586;-60
2022/09/19 08:56:38;;;;;;;6.40;2.70;;;12.90;99.90;;;;;;5115177;28;20434;-60
2022/09/19 08:59:11;;;;;;;6.37;2.50;;;12.70;99.90;;;;;;5114813;28;20438;-59
2022/09/19 09:01:39;;;;;;;11.07;2.83;;;12.70;99.90;;;;;;5115416;28;20462;-60
2022/09/19 09:04:25;;;;;;;6.30;4.43;;;12.80;99.90;;;;;;5114609;28;20545;-59
2022/09/19 09:07:04;;;;;;;6.20;2.57;;;12.90;99.90;;;;;;5114995;28;20473;-60
2022/09/19 09:09:45;;;;;;;10.00;2.30;;;12.90;99.90;;;;;;5114552;28;20422;-60
2022/09/19 09:12:23;;;;;;;7.47;2.87;;;12.70;99.90;;;;;;5114415;28;20462;-60
2022/09/19 09:15:03;;;;;;;9.00;2.53;;;12.60;99.90;;;;;;5114714;28;20522;-60
2022/09/19 09:17:39;;;;;;;10.40;3.03;;;12.40;99.90;;;;;;5115013;28;20446;-60
2022/09/19 09:20:24;;;;;;;5.83;2.50;;;12.40;99.90;;;;;;5114471;28;20434;-60
2022/09/19 09:23:00;;;;;;;12.83;2.90;;;12.60;99.90;;;;;;5114463;28;20490;-60
2022/09/19 09:25:32;;;;;;;7.77;3.30;;;12.80;99.90;;;;;;5114548;28;20426;-59
2022/09/19 09:28:07;;;;;;;4.97;2.30;;;12.80;99.90;;;;;;5114677;28;20948;-60
2022/09/19 09:30:37;;;;;;;4.83;2.10;;;12.80;99.90;;;;;;5114355;28;20430;-60
2022/09/19 09:33:12;;;;;;;7.60;2.60;;;12.90;99.90;;;;;;5113976;28;20459;-60
2022/09/19 09:35:45;;;;;;;4.40;2.63;;;12.90;99.90;;;;;;5114678;28;20431;-60
2022/09/19 09:38:27;;;;;;;7.37;2.50;;;13.00;99.90;;;;;;5114817;28;20510;-60
2022/09/19 09:44:13;;;;;;;12.87;2.50;;;13.20;99.90;;;;;;5071177;28;20454;-60
2022/09/19 09:46:54;;;;;;;6.10;2.57;;;13.20;99.90;;;;;;5070758;28;20507;-60
2022/09/19 09:49:22;;;;;;;3.77;2.33;;;13.20;99.90;;;;;;5097205;28;20450;-60
2022/09/19 09:52:00;;;;;;;5.90;2.73;;;13.00;99.90;;;;;;5113618;28;20466;-60
2022/09/19 09:57:34;;;;;;;6.80;3.00;;;12.80;99.90;;;;;;5114089;28;20484;-60
2022/09/19 10:05:52;;;;;;;5.90;2.60;;;13.10;99.90;;;;;;5113981;28;20442;-60
2022/09/19 10:08:22;;;;;;;6.40;3.27;;;13.20;99.90;;;;;;5114155;28;20430;-60
2022/09/19 10:10:53;;;;;;;5.20;3.10;;;13.40;99.90;;;;;;5113830;28;20434;-60
2022/09/19 10:13:27;;;;;;;6.30;2.83;;;13.40;99.90;;;;;;5113928;28;20443;-60
2022/09/19 10:16:02;;;;;;;3.47;2.23;;;13.60;99.90;;;;;;5113715;28;20418;-60
2022/09/19 10:18:42;;;;;;;3.17;2.73;;;14.00;99.90;;;;;;5113578;28;20983;-60
2022/09/19 10:21:09;;;;;;;7.00;2.77;;;14.10;99.90;;;;;;5113387;28;20466;-60
2022/09/19 10:23:36;;;;;;;4.73;2.90;;;14.50;99.90;;;;;;5113208;28;21061;-60
2022/09/19 10:26:07;;;;;;;1.93;1.70;;;15.10;99.90;;;;;;5113509;28;20925;-60
2022/09/19 10:28:40;;;;;;;3.80;2.00;;;15.20;99.90;;;;;;5113818;28;20438;-60
2022/09/19 10:31:23;;;;;;;8.13;2.50;;;15.00;99.90;;;;;;5113612;28;20463;-60
2022/09/19 10:33:51;;;;;;;6.47;2.93;;;14.80;99.90;;;;;;5113693;28;20427;-59
2022/09/19 10:36:21;;;;;;;5.27;2.40;;;14.80;99.90;;;;;;5113305;28;20478;-60
2022/09/19 10:38:53;;;;;;;5.80;2.23;;;14.80;99.90;;;;;;5113236;28;20453;-60
2022/09/19 10:41:23;;;;;;;4.10;2.23;;;14.80;99.90;;;;;;5113457;28;20466;-60
2022/09/19 10:43:52;;;;;;;3.63;2.20;;;14.80;99.90;;;;;;5114725;28;20454;-61
2022/09/19 10:46:24;;;;;;;4.10;2.30;;;14.80;99.90;;;;;;5116053;28;20477;-60
2022/09/19 10:48:56;;;;;;;2.70;2.17;;;14.50;99.90;;;;;;5117640;28;20488;-60
2022/09/19 10:51:27;;;;;;;5.30;2.17;;;14.40;99.90;;;;;;5117331;27;20474;-60
2022/09/19 10:53:57;;;;;;;3.50;1.73;;;14.40;99.90;;;;;;5117138;28;20909;-60
2022/09/19 10:56:28;;;;;;;2.30;1.67;;;14.30;99.90;;;;;;5117533;28;20418;-60
2022/09/19 10:59:05;;;;;;;4.20;2.83;;;14.40;99.90;;;;;;5117557;28;20430;-60
2022/09/19 11:01:33;;;;;;;3.07;2.10;;;14.40;99.90;;;;;;5117368;28;20497;-60
2022/09/19 11:04:03;;;;;;;6.57;2.37;;;14.80;99.90;;;;;;5117209;28;20450;-60
2022/09/19 11:06:31;;;;;;;3.00;2.40;;;14.60;99.90;;;;;;5116696;28;21003;-60
2022/09/19 11:08:59;;;;;;;3.60;2.30;;;14.40;99.90;;;;;;5117309;28;20447;-60
2022/09/19 11:11:36;;;;;;;3.50;2.10;;;14.50;99.90;;;;;;5116589;28;20478;-59
2022/09/19 11:14:26;;;;;;;5.00;2.30;;;14.50;99.90;;;;;;5116900;28;20462;-59
2022/09/19 11:17:33;;;;;;;3.00;2.13;;;14.60;99.90;;;;;;5116585;28;20518;-60
2022/09/19 11:20:25;;;;;;;5.00;2.23;;;14.40;99.90;;;;;;5034004;28;20426;-60
2022/09/19 11:23:28;;;;;;;5.03;1.80;;;14.30;99.90;;;;;;5116414;28;20889;-60
2022/09/19 11:26:03;;;;;;;3.27;2.30;;;14.50;99.90;;;;;;5103824;28;20498;-60
2022/09/19 11:28:36;;;;;;;3.10;2.10;;;14.50;99.90;;;;;;5116781;27;20458;-60
2022/09/19 11:31:12;;;;;;;5.90;2.07;;;14.30;99.90;;;;;;5116403;28;20466;-60
2022/09/19 11:33:52;;;;;;;2.77;1.90;;;14.30;99.90;;;;;;5116772;28;20430;-60
2022/09/19 11:36:29;;;;;;;4.60;2.50;;;14.30;99.90;;;;;;5116583;28;20434;-60
2022/09/19 11:39:03;;;;;;;2.70;2.13;;;14.30;99.90;;;;;;5116667;28;20522;-61
2022/09/19 11:41:43;;;;;;;3.80;1.90;;;14.40;99.90;;;;;;5116287;28;20465;-61
2022/09/19 11:44:51;;;;;;;3.07;2.67;;;14.50;99.90;;;;;;5116166;28;20454;-60
2022/09/19 11:47:44;;;;;;;5.00;2.10;;;14.60;99.90;;;;;;5106296;27;20482;-61
2022/09/19 11:50:39;;;;;;;3.33;1.70;;;14.50;99.90;;;;;;5116183;28;20423;-59
2022/09/19 11:53:22;;;;;;;2.00;1.40;;;14.40;99.90;;;;;;5116006;28;20550;-60
2022/09/19 11:55:55;;;;;;;3.93;1.70;;;14.40;99.90;;;;;;5116369;28;20472;-59
2022/09/19 11:58:30;;;;;;;2.87;1.50;;;14.50;99.90;;;;;;5116064;28;20916;-60
2022/09/19 12:01:08;;;;;;;5.43;2.37;;;14.30;99.90;;;;;;5116296;28;20781;-60
2022/09/19 12:03:52;;;;;;;5.00;1.77;;;14.20;99.90;;;;;;5116225;28;20419;-60
2022/09/19 12:06:35;;;;;;;2.43;1.60;;;14.20;99.90;;;;;;5115806;28;20956;-60
2022/09/19 12:09:12;;;;;;;2.20;2.00;;;14.10;99.90;;;;;;5115997;28;20423;-60
2022/09/19 12:11:45;;;;;;;2.37;1.80;;;14.00;99.90;;;;;;5115805;28;20463;-60
2022/09/19 12:14:18;;;;;;;6.80;2.40;;;14.10;99.90;;;;;;5116133;28;20485;-59
2022/09/19 12:16:50;;;;;;;2.70;2.10;;;14.20;99.90;;;;;;5115765;28;20901;-60
2022/09/19 12:19:21;;;;;;;6.30;1.90;;;14.30;99.90;;;;;;5115982;28;20431;-59
2022/09/19 12:21:51;;;;;;;3.87;2.20;;;14.50;99.90;;;;;;5115516;28;20498;-59
2022/09/19 12:27:15;;;;;;;2.40;1.80;;;14.90;99.90;;;;;;5115642;28;20461;-60
2022/09/19 12:29:48;;;;;;;6.90;2.30;;;15.00;99.90;;;;;;5115759;27;20530;-59
2022/09/19 12:32:22;;;;;;;7.70;2.33;;;15.40;99.90;;;;;;5115529;28;20802;-60
2022/09/19 12:34:58;;;;;;;3.57;1.80;;;15.40;99.90;;;;;;5115471;28;20435;-59
2022/09/19 12:37:35;;;;;;;2.10;1.80;;;15.70;99.90;;;;;;5115553;28;20426;-60
2022/09/19 12:40:15;;;;;;;4.93;3.00;;;16.60;99.90;;;;;;5115213;28;20433;-60
2022/09/19 12:42:49;;;;;;;2.37;1.70;;;17.70;99.90;;;;;;5115164;28;20565;-61
2022/09/19 12:45:22;;;;;;;2.20;1.87;;;17.80;99.90;;;;;;5114941;28;20835;-60
2022/09/19 12:48:00;;;;;;;2.20;1.40;;;18.20;99.90;;;;;;5115570;28;20482;-60
2022/09/19 12:50:33;;;;;;;2.83;2.60;;;17.80;99.90;;;;;;5115465;28;20423;-60
2022/09/19 12:53:28;;;;;;;3.60;1.80;;;16.90;99.90;;;;;;5115195;28;20836;-60
2022/09/19 12:56:04;;;;;;;8.20;2.10;;;16.40;99.90;;;;;;5112783;28;20499;-60
2022/09/19 12:58:37;;;;;;;7.17;2.47;;;16.20;99.90;;;;;;5115190;28;20419;-60
2022/09/19 13:01:17;;;;;;;8.53;1.90;;;15.70;99.90;;;;;;5115065;28;20527;-59
2022/09/19 13:03:51;;;;;;;2.97;1.97;;;15.70;99.90;;;;;;5114561;28;20917;-60
2022/09/19 13:06:21;;;;;;;5.23;1.70;;;15.80;99.90;;;;;;5114567;28;20423;-60
2022/09/19 13:08:54;;;;;;;2.13;1.67;;;15.70;99.90;;;;;;5114855;28;20466;-59
2022/09/19 13:11:28;;;;;;;7.90;2.00;;;15.80;99.90;;;;;;5114607;28;20578;-60
2022/09/19 13:14:00;;;;;;;2.10;1.70;;;15.90;99.90;;;;;;5114821;28;20450;-60
2022/09/19 13:16:30;;;;;;;4.93;1.80;;;15.90;99.90;;;;;;5114921;28;20510;-59
2022/09/19 13:24:39;;;;;;;3.80;2.27;;;15.30;99.90;;;;;;5114410;28;20913;-60
2022/09/19 13:27:09;;;;;;;3.33;1.80;;;15.40;99.90;;;;;;5114183;28;20897;-59
2022/09/19 13:29:49;;;;;;;4.63;2.60;;;15.40;99.90;;;;;;5113735;28;20525;-59
2022/09/19 13:32:34;;;;;;;2.60;2.00;;;15.20;99.90;;;;;;5113966;28;20462;-60
2022/09/19 13:35:14;;;;;;;1.93;1.80;;;15.20;99.90;;;;;;5114226;28;20500;-60
2022/09/19 13:37:57;;;;;;;4.80;1.87;;;15.30;99.90;;;;;;5113843;28;20423;-60
2022/09/19 13:40:43;;;;;;;4.00;2.07;;;15.50;99.90;;;;;;5114287;28;20454;-60
2022/09/19 13:43:27;;;;;;;3.77;1.73;;;15.60;99.90;;;;;;5114104;28;20804;-59
2022/09/19 13:46:00;;;;;;;6.00;3.10;;;15.70;99.90;;;;;;5113831;28;20476;-60